sensor_id;sensor_type;location;lat;lon;timestamp;P1;durP1;ratioP1;P2;durP2;ratioP2
65289;SDS011;51893;59.754;10.110;2023-01-25T00:02:19;36.70;;;17.80;;
65289;SDS011;51893;59.754;10.110;2023-01-25T00:04:47;41.90;;;18.90;;
65289;SDS011;51893;59.754;10.110;2023-01-25T00:07:15;45.30;;;20.20;;
65289;SDS011;51893;59.754;10.110;2023-01-25T00:09:43;42.10;;;20.70;;
65289;SDS011;51893;59.754;10.110;2023-01-25T00:12:11;47.00;;;22.30;;
65289;SDS011;51893;59.754;10.110;2023-01-25T00:14:39;61.60;;;21.50;;
65289;SDS011;51893;59.754;10.110;2023-01-25T00:17:08;60.10;;;23.90;;
65289;SDS011;51893;59.754;10.110;2023-01-25T00:19:36;67.50;;;25.20;;
65289;SDS011;51893;59.754;10.110;2023-01-25T00:22:04;67.50;;;23.80;;
65289;SDS011;51893;59.754;10.110;2023-01-25T00:24:32;67.90;;;25.20;;
65289;SDS011;51893;59.754;10.110;2023-01-25T00:27:01;68.60;;;24.50;;
65289;SDS011;51893;59.754;10.110;2023-01-25T00:29:31;66.80;;;24.80;;
65289;SDS011;51893;59.754;10.110;2023-01-25T00:34:51;74.50;;;27.60;;
65289;SDS011;51893;59.754;10.110;2023-01-25T00:37:35;81.40;;;28.00;;
65289;SDS011;51893;59.754;10.110;2023-01-25T00:40:08;83.20;;;28.40;;
65289;SDS011;51893;59.754;10.110;2023-01-25T00:42:39;81.80;;;29.20;;
65289;SDS011;51893;59.754;10.110;2023-01-25T00:45:10;77.50;;;27.50;;
65289;SDS011;51893;59.754;10.110;2023-01-25T00:47:39;67.20;;;27.00;;
65289;SDS011;51893;59.754;10.110;2023-01-25T00:50:07;65.30;;;23.30;;
65289;SDS011;51893;59.754;10.110;2023-01-25T00:52:36;71.30;;;24.60;;
65289;SDS011;51893;59.754;10.110;2023-01-25T00:55:05;64.40;;;23.50;;
65289;SDS011;51893;59.754;10.110;2023-01-25T00:57:33;72.40;;;24.80;;
65289;SDS011;51893;59.754;10.110;2023-01-25T01:00:03;76.70;;;25.90;;
65289;SDS011;51893;59.754;10.110;2023-01-25T01:02:33;72.00;;;25.70;;
65289;SDS011;51893;59.754;10.110;2023-01-25T01:05:04;73.10;;;27.10;;
65289;SDS011;51893;59.754;10.110;2023-01-25T01:07:33;60.50;;;24.70;;
65289;SDS011;51893;59.754;10.110;2023-01-25T01:10:03;65.20;;;22.50;;
65289;SDS011;51893;59.754;10.110;2023-01-25T01:12:32;72.70;;;26.40;;
65289;SDS011;51893;59.754;10.110;2023-01-25T01:14:59;86.70;;;29.30;;
65289;SDS011;51893;59.754;10.110;2023-01-25T01:17:27;83.10;;;28.60;;
65289;SDS011;51893;59.754;10.110;2023-01-25T01:19:55;77.90;;;29.10;;
65289;SDS011;51893;59.754;10.110;2023-01-25T01:22:23;77.90;;;28.60;;
65289;SDS011;51893;59.754;10.110;2023-01-25T01:24:51;67.90;;;26.80;;
65289;SDS011;51893;59.754;10.110;2023-01-25T01:27:19;65.90;;;28.00;;
65289;SDS011;51893;59.754;10.110;2023-01-25T01:29:47;66.90;;;24.90;;
65289;SDS011;51893;59.754;10.110;2023-01-25T01:32:17;77.60;;;29.30;;
65289;SDS011;51893;59.754;10.110;2023-01-25T01:34:45;68.50;;;26.40;;
65289;SDS011;51893;59.754;10.110;2023-01-25T01:37:13;76.00;;;27.20;;
65289;SDS011;51893;59.754;10.110;2023-01-25T01:39:48;53.80;;;21.90;;
65289;SDS011;51893;59.754;10.110;2023-01-25T01:42:18;71.70;;;27.20;;
65289;SDS011;51893;59.754;10.110;2023-01-25T01:44:52;46.50;;;17.00;;
65289;SDS011;51893;59.754;10.110;2023-01-25T01:47:39;37.00;;;16.10;;
65289;SDS011;51893;59.754;10.110;2023-01-25T01:50:22;54.80;;;21.50;;
65289;SDS011;51893;59.754;10.110;2023-01-25T01:52:51;60.10;;;24.00;;
65289;SDS011;51893;59.754;10.110;2023-01-25T01:55:20;58.80;;;24.60;;
65289;SDS011;51893;59.754;10.110;2023-01-25T01:57:55;59.90;;;23.10;;
65289;SDS011;51893;59.754;10.110;2023-01-25T02:00:31;59.50;;;23.70;;
65289;SDS011;51893;59.754;10.110;2023-01-25T02:03:04;65.10;;;25.00;;
65289;SDS011;51893;59.754;10.110;2023-01-25T02:05:47;62.50;;;22.10;;
65289;SDS011;51893;59.754;10.110;2023-01-25T02:08:24;56.20;;;23.10;;
65289;SDS011;51893;59.754;10.110;2023-01-25T02:10:54;63.10;;;24.00;;
65289;SDS011;51893;59.754;10.110;2023-01-25T02:13:23;61.50;;;23.70;;
65289;SDS011;51893;59.754;10.110;2023-01-25T02:15:52;61.70;;;23.90;;
65289;SDS011;51893;59.754;10.110;2023-01-25T02:18:23;62.70;;;25.70;;
65289;SDS011;51893;59.754;10.110;2023-01-25T02:20:54;66.90;;;25.00;;
65289;SDS011;51893;59.754;10.110;2023-01-25T02:26:21;59.10;;;22.50;;
65289;SDS011;51893;59.754;10.110;2023-01-25T02:29:09;76.70;;;26.20;;
65289;SDS011;51893;59.754;10.110;2023-01-25T02:31:43;69.70;;;26.60;;
65289;SDS011;51893;59.754;10.110;2023-01-25T02:34:12;67.30;;;26.90;;
65289;SDS011;51893;59.754;10.110;2023-01-25T02:36:41;60.50;;;25.90;;
65289;SDS011;51893;59.754;10.110;2023-01-25T02:39:12;68.30;;;25.70;;
65289;SDS011;51893;59.754;10.110;2023-01-25T02:41:58;52.40;;;24.00;;
65289;SDS011;51893;59.754;10.110;2023-01-25T02:44:29;56.10;;;23.60;;
65289;SDS011;51893;59.754;10.110;2023-01-25T02:47:02;64.30;;;23.70;;
65289;SDS011;51893;59.754;10.110;2023-01-25T02:49:30;66.70;;;26.60;;
65289;SDS011;51893;59.754;10.110;2023-01-25T02:52:03;64.30;;;25.70;;
65289;SDS011;51893;59.754;10.110;2023-01-25T02:54:32;58.40;;;21.50;;
65289;SDS011;51893;59.754;10.110;2023-01-25T02:57:01;57.60;;;23.00;;
65289;SDS011;51893;59.754;10.110;2023-01-25T02:59:29;59.10;;;24.80;;
65289;SDS011;51893;59.754;10.110;2023-01-25T03:01:57;67.40;;;24.90;;
65289;SDS011;51893;59.754;10.110;2023-01-25T03:04:25;54.80;;;22.40;;
65289;SDS011;51893;59.754;10.110;2023-01-25T03:06:53;54.40;;;22.40;;
65289;SDS011;51893;59.754;10.110;2023-01-25T03:09:21;52.20;;;21.20;;
65289;SDS011;51893;59.754;10.110;2023-01-25T03:11:49;52.80;;;21.90;;
65289;SDS011;51893;59.754;10.110;2023-01-25T03:14:18;52.10;;;21.50;;
65289;SDS011;51893;59.754;10.110;2023-01-25T03:16:47;61.10;;;22.90;;
65289;SDS011;51893;59.754;10.110;2023-01-25T03:19:15;56.70;;;23.10;;
65289;SDS011;51893;59.754;10.110;2023-01-25T03:21:43;55.30;;;22.50;;
65289;SDS011;51893;59.754;10.110;2023-01-25T03:24:11;58.60;;;22.70;;
65289;SDS011;51893;59.754;10.110;2023-01-25T03:26:39;48.40;;;21.50;;
65289;SDS011;51893;59.754;10.110;2023-01-25T03:29:26;51.70;;;20.40;;
65289;SDS011;51893;59.754;10.110;2023-01-25T03:31:54;52.20;;;22.40;;
65289;SDS011;51893;59.754;10.110;2023-01-25T03:34:22;43.20;;;19.50;;
65289;SDS011;51893;59.754;10.110;2023-01-25T03:36:50;52.50;;;20.30;;
65289;SDS011;51893;59.754;10.110;2023-01-25T03:39:18;56.40;;;21.90;;
65289;SDS011;51893;59.754;10.110;2023-01-25T03:41:48;57.80;;;23.60;;
65289;SDS011;51893;59.754;10.110;2023-01-25T03:44:16;51.00;;;20.80;;
65289;SDS011;51893;59.754;10.110;2023-01-25T03:46:44;45.10;;;19.50;;
65289;SDS011;51893;59.754;10.110;2023-01-25T03:49:14;42.00;;;19.70;;
65289;SDS011;51893;59.754;10.110;2023-01-25T03:51:42;41.10;;;19.00;;
65289;SDS011;51893;59.754;10.110;2023-01-25T03:54:11;47.80;;;20.70;;
65289;SDS011;51893;59.754;10.110;2023-01-25T03:56:40;47.70;;;20.20;;
65289;SDS011;51893;59.754;10.110;2023-01-25T03:59:10;52.60;;;22.10;;
65289;SDS011;51893;59.754;10.110;2023-01-25T04:01:38;45.30;;;19.40;;
65289;SDS011;51893;59.754;10.110;2023-01-25T04:04:06;40.20;;;16.20;;
65289;SDS011;51893;59.754;10.110;2023-01-25T04:06:34;55.90;;;22.30;;
65289;SDS011;51893;59.754;10.110;2023-01-25T04:09:02;54.30;;;21.10;;
65289;SDS011;51893;59.754;10.110;2023-01-25T04:11:34;47.10;;;20.00;;
65289;SDS011;51893;59.754;10.110;2023-01-25T04:14:02;49.20;;;20.70;;
65289;SDS011;51893;59.754;10.110;2023-01-25T04:16:30;40.70;;;19.50;;
65289;SDS011;51893;59.754;10.110;2023-01-25T04:18:58;47.50;;;20.70;;
65289;SDS011;51893;59.754;10.110;2023-01-25T04:21:26;50.70;;;21.90;;
65289;SDS011;51893;59.754;10.110;2023-01-25T04:23:54;50.10;;;21.50;;
65289;SDS011;51893;59.754;10.110;2023-01-25T04:26:23;54.70;;;21.30;;
65289;SDS011;51893;59.754;10.110;2023-01-25T04:28:51;40.50;;;18.40;;
65289;SDS011;51893;59.754;10.110;2023-01-25T04:31:19;41.60;;;16.80;;
65289;SDS011;51893;59.754;10.110;2023-01-25T04:33:47;39.90;;;17.90;;
65289;SDS011;51893;59.754;10.110;2023-01-25T04:36:18;44.30;;;19.70;;
65289;SDS011;51893;59.754;10.110;2023-01-25T04:38:46;44.90;;;19.70;;
65289;SDS011;51893;59.754;10.110;2023-01-25T04:41:14;45.80;;;19.70;;
65289;SDS011;51893;59.754;10.110;2023-01-25T04:43:43;38.60;;;16.10;;
65289;SDS011;51893;59.754;10.110;2023-01-25T04:46:11;44.50;;;19.10;;
65289;SDS011;51893;59.754;10.110;2023-01-25T04:48:40;47.20;;;20.00;;
65289;SDS011;51893;59.754;10.110;2023-01-25T04:51:08;47.30;;;19.00;;
65289;SDS011;51893;59.754;10.110;2023-01-25T04:53:36;49.40;;;19.60;;
65289;SDS011;51893;59.754;10.110;2023-01-25T04:56:05;51.40;;;20.80;;
65289;SDS011;51893;59.754;10.110;2023-01-25T04:58:33;49.40;;;20.70;;
65289;SDS011;51893;59.754;10.110;2023-01-25T05:01:05;45.70;;;19.50;;
65289;SDS011;51893;59.754;10.110;2023-01-25T05:03:34;45.60;;;19.80;;
65289;SDS011;51893;59.754;10.110;2023-01-25T05:06:02;51.90;;;20.50;;
65289;SDS011;51893;59.754;10.110;2023-01-25T05:08:30;46.20;;;19.20;;
65289;SDS011;51893;59.754;10.110;2023-01-25T05:10:58;37.30;;;17.60;;
65289;SDS011;51893;59.754;10.110;2023-01-25T05:13:26;45.20;;;19.80;;
65289;SDS011;51893;59.754;10.110;2023-01-25T05:15:55;45.40;;;18.30;;
65289;SDS011;51893;59.754;10.110;2023-01-25T05:18:24;47.80;;;20.40;;
65289;SDS011;51893;59.754;10.110;2023-01-25T05:20:57;48.70;;;19.70;;
65289;SDS011;51893;59.754;10.110;2023-01-25T05:23:27;51.00;;;19.30;;
65289;SDS011;51893;59.754;10.110;2023-01-25T05:25:54;38.80;;;17.20;;
65289;SDS011;51893;59.754;10.110;2023-01-25T05:28:55;43.10;;;18.20;;
65289;SDS011;51893;59.754;10.110;2023-01-25T05:31:24;35.20;;;15.50;;
65289;SDS011;51893;59.754;10.110;2023-01-25T05:33:52;31.70;;;16.10;;
65289;SDS011;51893;59.754;10.110;2023-01-25T05:36:22;43.00;;;18.20;;
65289;SDS011;51893;59.754;10.110;2023-01-25T05:38:50;38.10;;;17.30;;
65289;SDS011;51893;59.754;10.110;2023-01-25T05:41:19;40.30;;;17.70;;
65289;SDS011;51893;59.754;10.110;2023-01-25T05:43:47;24.10;;;10.70;;
65289;SDS011;51893;59.754;10.110;2023-01-25T05:46:16;36.20;;;16.40;;
65289;SDS011;51893;59.754;10.110;2023-01-25T05:48:46;33.10;;;16.20;;
65289;SDS011;51893;59.754;10.110;2023-01-25T05:51:17;31.70;;;13.60;;
65289;SDS011;51893;59.754;10.110;2023-01-25T05:53:44;33.70;;;14.70;;
65289;SDS011;51893;59.754;10.110;2023-01-25T05:56:12;32.80;;;14.70;;
65289;SDS011;51893;59.754;10.110;2023-01-25T05:58:40;30.00;;;14.50;;
65289;SDS011;51893;59.754;10.110;2023-01-25T06:01:09;35.60;;;16.00;;
65289;SDS011;51893;59.754;10.110;2023-01-25T06:03:38;31.60;;;15.10;;
65289;SDS011;51893;59.754;10.110;2023-01-25T06:06:07;39.90;;;16.70;;
65289;SDS011;51893;59.754;10.110;2023-01-25T06:08:35;33.30;;;15.60;;
65289;SDS011;51893;59.754;10.110;2023-01-25T06:11:07;34.60;;;15.80;;
65289;SDS011;51893;59.754;10.110;2023-01-25T06:13:37;36.00;;;15.70;;
65289;SDS011;51893;59.754;10.110;2023-01-25T06:16:06;33.70;;;14.30;;
65289;SDS011;51893;59.754;10.110;2023-01-25T06:18:38;32.60;;;16.10;;
65289;SDS011;51893;59.754;10.110;2023-01-25T06:21:08;38.70;;;16.40;;
65289;SDS011;51893;59.754;10.110;2023-01-25T06:23:36;35.90;;;14.50;;
65289;SDS011;51893;59.754;10.110;2023-01-25T06:26:10;36.20;;;15.80;;
65289;SDS011;51893;59.754;10.110;2023-01-25T06:28:42;32.50;;;15.60;;
65289;SDS011;51893;59.754;10.110;2023-01-25T06:31:15;33.20;;;14.00;;
65289;SDS011;51893;59.754;10.110;2023-01-25T06:33:49;32.10;;;14.30;;
65289;SDS011;51893;59.754;10.110;2023-01-25T06:36:21;28.90;;;13.20;;
65289;SDS011;51893;59.754;10.110;2023-01-25T06:38:51;31.40;;;15.30;;
65289;SDS011;51893;59.754;10.110;2023-01-25T06:41:19;32.10;;;14.40;;
65289;SDS011;51893;59.754;10.110;2023-01-25T06:43:51;33.80;;;15.30;;
65289;SDS011;51893;59.754;10.110;2023-01-25T06:46:20;32.70;;;14.10;;
65289;SDS011;51893;59.754;10.110;2023-01-25T06:48:51;33.40;;;13.80;;
65289;SDS011;51893;59.754;10.110;2023-01-25T06:51:20;27.00;;;12.70;;
65289;SDS011;51893;59.754;10.110;2023-01-25T06:53:47;18.10;;;10.30;;
65289;SDS011;51893;59.754;10.110;2023-01-25T06:56:19;24.00;;;12.10;;
65289;SDS011;51893;59.754;10.110;2023-01-25T06:58:49;25.00;;;12.00;;
65289;SDS011;51893;59.754;10.110;2023-01-25T07:01:20;29.40;;;13.30;;
65289;SDS011;51893;59.754;10.110;2023-01-25T07:03:55;32.90;;;14.90;;
65289;SDS011;51893;59.754;10.110;2023-01-25T07:06:29;32.60;;;14.90;;
65289;SDS011;51893;59.754;10.110;2023-01-25T07:09:04;34.40;;;15.70;;
65289;SDS011;51893;59.754;10.110;2023-01-25T07:11:34;33.90;;;13.70;;
65289;SDS011;51893;59.754;10.110;2023-01-25T07:14:04;31.20;;;14.00;;
65289;SDS011;51893;59.754;10.110;2023-01-25T07:16:33;31.60;;;13.70;;
65289;SDS011;51893;59.754;10.110;2023-01-25T07:19:08;26.20;;;13.60;;
65289;SDS011;51893;59.754;10.110;2023-01-25T07:21:37;29.00;;;13.90;;
65289;SDS011;51893;59.754;10.110;2023-01-25T07:24:05;27.70;;;13.50;;
65289;SDS011;51893;59.754;10.110;2023-01-25T07:26:33;31.30;;;14.70;;
65289;SDS011;51893;59.754;10.110;2023-01-25T07:29:02;32.10;;;14.80;;
65289;SDS011;51893;59.754;10.110;2023-01-25T07:31:31;28.90;;;13.60;;
65289;SDS011;51893;59.754;10.110;2023-01-25T07:33:59;26.70;;;11.70;;
65289;SDS011;51893;59.754;10.110;2023-01-25T07:36:27;25.30;;;12.60;;
65289;SDS011;51893;59.754;10.110;2023-01-25T07:38:57;28.20;;;13.20;;
65289;SDS011;51893;59.754;10.110;2023-01-25T07:41:26;18.00;;;8.40;;
65289;SDS011;51893;59.754;10.110;2023-01-25T07:43:55;21.50;;;10.70;;
65289;SDS011;51893;59.754;10.110;2023-01-25T07:46:23;26.90;;;12.20;;
65289;SDS011;51893;59.754;10.110;2023-01-25T07:48:54;24.70;;;11.60;;
65289;SDS011;51893;59.754;10.110;2023-01-25T07:51:25;20.30;;;10.00;;
65289;SDS011;51893;59.754;10.110;2023-01-25T07:53:56;15.40;;;7.60;;
65289;SDS011;51893;59.754;10.110;2023-01-25T07:56:31;19.70;;;10.20;;
65289;SDS011;51893;59.754;10.110;2023-01-25T07:59:01;26.10;;;11.40;;
65289;SDS011;51893;59.754;10.110;2023-01-25T08:01:32;21.50;;;10.40;;
65289;SDS011;51893;59.754;10.110;2023-01-25T08:04:03;20.40;;;10.10;;
65289;SDS011;51893;59.754;10.110;2023-01-25T08:06:34;18.60;;;9.60;;
65289;SDS011;51893;59.754;10.110;2023-01-25T08:09:16;17.20;;;8.20;;
65289;SDS011;51893;59.754;10.110;2023-01-25T08:11:48;13.30;;;7.00;;
65289;SDS011;51893;59.754;10.110;2023-01-25T08:14:16;13.70;;;6.40;;
65289;SDS011;51893;59.754;10.110;2023-01-25T08:16:44;16.90;;;8.70;;
65289;SDS011;51893;59.754;10.110;2023-01-25T08:19:12;20.00;;;9.80;;
65289;SDS011;51893;59.754;10.110;2023-01-25T08:21:40;19.90;;;8.90;;
65289;SDS011;51893;59.754;10.110;2023-01-25T08:24:09;19.10;;;9.00;;
65289;SDS011;51893;59.754;10.110;2023-01-25T08:26:37;16.20;;;6.90;;
65289;SDS011;51893;59.754;10.110;2023-01-25T08:29:06;12.70;;;6.70;;
65289;SDS011;51893;59.754;10.110;2023-01-25T08:31:35;15.20;;;7.40;;
65289;SDS011;51893;59.754;10.110;2023-01-25T08:34:04;13.60;;;7.70;;
65289;SDS011;51893;59.754;10.110;2023-01-25T08:36:34;12.80;;;6.60;;
65289;SDS011;51893;59.754;10.110;2023-01-25T08:39:06;14.80;;;8.00;;
65289;SDS011;51893;59.754;10.110;2023-01-25T08:41:35;13.80;;;7.90;;
65289;SDS011;51893;59.754;10.110;2023-01-25T08:44:04;6.80;;;3.90;;
65289;SDS011;51893;59.754;10.110;2023-01-25T08:46:33;17.50;;;8.50;;
65289;SDS011;51893;59.754;10.110;2023-01-25T08:49:02;14.70;;;7.50;;
65289;SDS011;51893;59.754;10.110;2023-01-25T08:51:35;14.70;;;8.40;;
65289;SDS011;51893;59.754;10.110;2023-01-25T08:54:10;16.40;;;8.50;;
65289;SDS011;51893;59.754;10.110;2023-01-25T08:56:42;7.80;;;4.80;;
65289;SDS011;51893;59.754;10.110;2023-01-25T08:59:11;9.80;;;5.10;;
65289;SDS011;51893;59.754;10.110;2023-01-25T09:01:40;18.30;;;8.30;;
65289;SDS011;51893;59.754;10.110;2023-01-25T09:04:08;11.10;;;6.60;;
65289;SDS011;51893;59.754;10.110;2023-01-25T09:06:36;15.00;;;7.70;;
65289;SDS011;51893;59.754;10.110;2023-01-25T09:09:04;13.40;;;7.50;;
65289;SDS011;51893;59.754;10.110;2023-01-25T09:11:35;11.80;;;7.30;;
65289;SDS011;51893;59.754;10.110;2023-01-25T09:14:05;15.50;;;8.30;;
65289;SDS011;51893;59.754;10.110;2023-01-25T09:16:35;15.70;;;7.90;;
65289;SDS011;51893;59.754;10.110;2023-01-25T09:19:05;17.10;;;8.20;;
65289;SDS011;51893;59.754;10.110;2023-01-25T09:21:34;19.20;;;8.70;;
65289;SDS011;51893;59.754;10.110;2023-01-25T09:24:06;19.70;;;9.90;;
65289;SDS011;51893;59.754;10.110;2023-01-25T09:26:38;22.90;;;10.50;;
65289;SDS011;51893;59.754;10.110;2023-01-25T09:29:11;18.90;;;7.80;;
65289;SDS011;51893;59.754;10.110;2023-01-25T09:31:39;10.00;;;5.50;;
65289;SDS011;51893;59.754;10.110;2023-01-25T09:34:11;4.80;;;3.00;;
65289;SDS011;51893;59.754;10.110;2023-01-25T09:36:42;11.80;;;5.90;;
65289;SDS011;51893;59.754;10.110;2023-01-25T09:39:12;7.60;;;4.50;;
65289;SDS011;51893;59.754;10.110;2023-01-25T09:48:08;17.90;;;8.50;;
65289;SDS011;51893;59.754;10.110;2023-01-25T09:53:49;19.30;;;8.50;;
65289;SDS011;51893;59.754;10.110;2023-01-25T09:56:26;15.30;;;8.30;;
65289;SDS011;51893;59.754;10.110;2023-01-25T09:59:03;17.20;;;7.60;;
65289;SDS011;51893;59.754;10.110;2023-01-25T10:04:39;14.70;;;7.90;;
65289;SDS011;51893;59.754;10.110;2023-01-25T10:10:10;16.50;;;7.50;;
65289;SDS011;51893;59.754;10.110;2023-01-25T10:12:43;13.40;;;7.10;;
65289;SDS011;51893;59.754;10.110;2023-01-25T10:15:20;13.10;;;6.80;;
65289;SDS011;51893;59.754;10.110;2023-01-25T10:21:17;16.10;;;9.00;;
65289;SDS011;51893;59.754;10.110;2023-01-25T10:30:29;18.20;;;10.10;;
65289;SDS011;51893;59.754;10.110;2023-01-25T10:33:11;23.80;;;10.90;;
65289;SDS011;51893;59.754;10.110;2023-01-25T10:35:44;18.30;;;10.00;;
65289;SDS011;51893;59.754;10.110;2023-01-25T10:38:26;22.70;;;11.80;;
65289;SDS011;51893;59.754;10.110;2023-01-25T10:41:10;21.20;;;10.20;;
65289;SDS011;51893;59.754;10.110;2023-01-25T10:43:46;21.50;;;11.00;;
65289;SDS011;51893;59.754;10.110;2023-01-25T10:46:23;19.60;;;10.30;;
65289;SDS011;51893;59.754;10.110;2023-01-25T10:48:54;18.50;;;9.90;;
65289;SDS011;51893;59.754;10.110;2023-01-25T10:51:29;21.20;;;10.10;;
65289;SDS011;51893;59.754;10.110;2023-01-25T10:54:05;19.10;;;9.70;;
65289;SDS011;51893;59.754;10.110;2023-01-25T10:56:41;29.80;;;13.10;;
65289;SDS011;51893;59.754;10.110;2023-01-25T11:01:52;22.10;;;11.00;;
65289;SDS011;51893;59.754;10.110;2023-01-25T11:04:41;14.80;;;9.30;;
65289;SDS011;51893;59.754;10.110;2023-01-25T11:07:26;15.40;;;8.50;;
65289;SDS011;51893;59.754;10.110;2023-01-25T11:09:59;13.60;;;6.50;;
65289;SDS011;51893;59.754;10.110;2023-01-25T11:12:26;12.10;;;7.40;;
65289;SDS011;51893;59.754;10.110;2023-01-25T11:15:23;6.80;;;3.80;;
65289;SDS011;51893;59.754;10.110;2023-01-25T11:18:06;12.30;;;6.80;;
65289;SDS011;51893;59.754;10.110;2023-01-25T11:20:40;11.40;;;6.60;;
65289;SDS011;51893;59.754;10.110;2023-01-25T11:23:22;18.20;;;10.00;;
65289;SDS011;51893;59.754;10.110;2023-01-25T11:25:52;13.90;;;7.20;;
65289;SDS011;51893;59.754;10.110;2023-01-25T11:28:22;18.30;;;9.10;;
65289;SDS011;51893;59.754;10.110;2023-01-25T11:30:51;16.10;;;8.30;;
65289;SDS011;51893;59.754;10.110;2023-01-25T11:33:21;17.40;;;9.40;;
65289;SDS011;51893;59.754;10.110;2023-01-25T11:42:25;15.70;;;8.80;;
65289;SDS011;51893;59.754;10.110;2023-01-25T11:45:29;20.50;;;10.10;;
65289;SDS011;51893;59.754;10.110;2023-01-25T11:48:17;18.30;;;9.50;;
65289;SDS011;51893;59.754;10.110;2023-01-25T11:51:25;15.00;;;8.70;;
65289;SDS011;51893;59.754;10.110;2023-01-25T12:03:35;17.60;;;8.60;;
65289;SDS011;51893;59.754;10.110;2023-01-25T12:06:13;16.50;;;9.20;;
65289;SDS011;51893;59.754;10.110;2023-01-25T12:12:10;16.60;;;8.80;;
65289;SDS011;51893;59.754;10.110;2023-01-25T12:24:11;33.10;;;16.80;;
65289;SDS011;51893;59.754;10.110;2023-01-25T12:29:57;46.00;;;15.80;;
65289;SDS011;51893;59.754;10.110;2023-01-25T12:32:53;38.90;;;17.10;;
65289;SDS011;51893;59.754;10.110;2023-01-25T12:35:45;38.30;;;16.70;;
65289;SDS011;51893;59.754;10.110;2023-01-25T12:38:26;33.70;;;13.60;;
65289;SDS011;51893;59.754;10.110;2023-01-25T12:41:07;27.00;;;12.40;;
65289;SDS011;51893;59.754;10.110;2023-01-25T12:47:12;33.30;;;13.70;;
65289;SDS011;51893;59.754;10.110;2023-01-25T12:49:54;34.10;;;15.60;;
65289;SDS011;51893;59.754;10.110;2023-01-25T12:52:32;21.70;;;10.10;;
65289;SDS011;51893;59.754;10.110;2023-01-25T12:55:05;18.60;;;10.30;;
65289;SDS011;51893;59.754;10.110;2023-01-25T13:00:48;16.40;;;9.00;;
65289;SDS011;51893;59.754;10.110;2023-01-25T13:03:34;17.30;;;9.50;;
65289;SDS011;51893;59.754;10.110;2023-01-25T13:06:56;16.90;;;9.60;;
65289;SDS011;51893;59.754;10.110;2023-01-25T13:12:52;14.10;;;8.20;;
65289;SDS011;51893;59.754;10.110;2023-01-25T13:20:56;19.90;;;11.30;;
65289;SDS011;51893;59.754;10.110;2023-01-25T13:23:40;17.20;;;9.80;;
65289;SDS011;51893;59.754;10.110;2023-01-25T13:28:56;23.40;;;11.50;;
65289;SDS011;51893;59.754;10.110;2023-01-25T13:31:47;26.80;;;13.80;;
65289;SDS011;51893;59.754;10.110;2023-01-25T13:42:25;18.50;;;9.80;;
65289;SDS011;51893;59.754;10.110;2023-01-25T13:47:36;18.50;;;10.10;;
65289;SDS011;51893;59.754;10.110;2023-01-25T14:00:55;23.40;;;11.70;;
65289;SDS011;51893;59.754;10.110;2023-01-25T14:03:40;24.30;;;13.90;;
65289;SDS011;51893;59.754;10.110;2023-01-25T14:06:21;23.90;;;12.30;;
65289;SDS011;51893;59.754;10.110;2023-01-25T14:08:54;23.60;;;12.90;;
65289;SDS011;51893;59.754;10.110;2023-01-25T14:11:35;22.80;;;12.50;;
65289;SDS011;51893;59.754;10.110;2023-01-25T14:14:27;25.10;;;13.00;;
65289;SDS011;51893;59.754;10.110;2023-01-25T14:17:18;23.10;;;13.00;;
65289;SDS011;51893;59.754;10.110;2023-01-25T14:19:56;27.10;;;13.60;;
65289;SDS011;51893;59.754;10.110;2023-01-25T14:22:30;20.40;;;11.50;;
65289;SDS011;51893;59.754;10.110;2023-01-25T14:25:08;37.70;;;18.30;;
65289;SDS011;51893;59.754;10.110;2023-01-25T14:27:46;22.70;;;11.50;;
65289;SDS011;51893;59.754;10.110;2023-01-25T14:30:32;23.60;;;11.10;;
65289;SDS011;51893;59.754;10.110;2023-01-25T14:33:14;21.80;;;11.60;;
65289;SDS011;51893;59.754;10.110;2023-01-25T14:36:28;22.10;;;10.50;;
65289;SDS011;51893;59.754;10.110;2023-01-25T14:38:58;18.30;;;10.00;;
65289;SDS011;51893;59.754;10.110;2023-01-25T14:41:33;19.40;;;11.40;;
65289;SDS011;51893;59.754;10.110;2023-01-25T14:44:09;19.80;;;10.90;;
65289;SDS011;51893;59.754;10.110;2023-01-25T14:46:40;16.30;;;10.00;;
65289;SDS011;51893;59.754;10.110;2023-01-25T14:49:24;15.30;;;7.60;;
65289;SDS011;51893;59.754;10.110;2023-01-25T14:54:34;30.60;;;16.50;;
65289;SDS011;51893;59.754;10.110;2023-01-25T14:57:06;33.60;;;16.70;;
65289;SDS011;51893;59.754;10.110;2023-01-25T14:59:50;37.60;;;19.20;;
65289;SDS011;51893;59.754;10.110;2023-01-25T15:05:28;32.70;;;16.10;;
65289;SDS011;51893;59.754;10.110;2023-01-25T15:10:36;24.90;;;12.10;;
65289;SDS011;51893;59.754;10.110;2023-01-25T15:13:22;24.90;;;13.30;;
65289;SDS011;51893;59.754;10.110;2023-01-25T15:15:55;28.00;;;13.70;;
65289;SDS011;51893;59.754;10.110;2023-01-25T15:18:49;15.00;;;8.40;;
65289;SDS011;51893;59.754;10.110;2023-01-25T15:21:25;18.90;;;10.10;;
65289;SDS011;51893;59.754;10.110;2023-01-25T15:23:59;16.20;;;9.70;;
65289;SDS011;51893;59.754;10.110;2023-01-25T15:26:33;38.50;;;16.70;;
65289;SDS011;51893;59.754;10.110;2023-01-25T15:29:24;44.50;;;21.80;;
65289;SDS011;51893;59.754;10.110;2023-01-25T15:31:55;27.50;;;15.70;;
65289;SDS011;51893;59.754;10.110;2023-01-25T15:34:26;27.10;;;14.60;;
65289;SDS011;51893;59.754;10.110;2023-01-25T15:36:57;31.70;;;17.40;;
65289;SDS011;51893;59.754;10.110;2023-01-25T15:39:26;24.00;;;12.90;;
65289;SDS011;51893;59.754;10.110;2023-01-25T15:41:55;19.40;;;9.80;;
65289;SDS011;51893;59.754;10.110;2023-01-25T15:44:23;29.20;;;12.50;;
65289;SDS011;51893;59.754;10.110;2023-01-25T15:46:51;28.40;;;13.30;;
65289;SDS011;51893;59.754;10.110;2023-01-25T15:49:24;23.40;;;12.60;;
65289;SDS011;51893;59.754;10.110;2023-01-25T15:51:56;22.30;;;12.30;;
65289;SDS011;51893;59.754;10.110;2023-01-25T15:54:25;22.70;;;12.70;;
65289;SDS011;51893;59.754;10.110;2023-01-25T15:56:55;23.80;;;12.30;;
65289;SDS011;51893;59.754;10.110;2023-01-25T15:59:27;19.40;;;10.30;;
65289;SDS011;51893;59.754;10.110;2023-01-25T16:01:56;11.50;;;7.20;;
65289;SDS011;51893;59.754;10.110;2023-01-25T16:04:24;23.40;;;13.10;;
65289;SDS011;51893;59.754;10.110;2023-01-25T16:06:53;25.60;;;12.70;;
65289;SDS011;51893;59.754;10.110;2023-01-25T16:09:25;22.40;;;13.50;;
65289;SDS011;51893;59.754;10.110;2023-01-25T16:12:00;25.00;;;13.00;;
65289;SDS011;51893;59.754;10.110;2023-01-25T16:14:28;29.00;;;14.30;;
65289;SDS011;51893;59.754;10.110;2023-01-25T16:17:00;31.70;;;16.90;;
65289;SDS011;51893;59.754;10.110;2023-01-25T16:19:32;33.30;;;16.60;;
65289;SDS011;51893;59.754;10.110;2023-01-25T16:22:00;32.00;;;15.90;;
65289;SDS011;51893;59.754;10.110;2023-01-25T16:24:28;27.30;;;14.80;;
65289;SDS011;51893;59.754;10.110;2023-01-25T16:26:57;24.40;;;13.40;;
65289;SDS011;51893;59.754;10.110;2023-01-25T16:29:27;28.80;;;16.30;;
65289;SDS011;51893;59.754;10.110;2023-01-25T16:31:55;26.30;;;14.00;;
65289;SDS011;51893;59.754;10.110;2023-01-25T16:34:24;23.50;;;13.30;;
65289;SDS011;51893;59.754;10.110;2023-01-25T16:36:55;25.30;;;12.80;;